createdAt,value
2023-02-02T00:01:33.000Z,60.07
2023-02-02T00:04:07.324Z,59.84
2023-02-02T00:06:40.188Z,59.82
2023-02-02T00:09:15.565Z,60.20
2023-02-02T00:11:51.104Z,60.02
2023-02-02T00:14:24.872Z,59.86
2023-02-02T00:16:58.862Z,60.30
2023-02-02T00:19:33.658Z,60.38
2023-02-02T00:22:06.524Z,60.32
2023-02-02T00:24:39.511Z,60.30
2023-02-02T00:27:12.435Z,60.05
2023-02-02T00:29:45.713Z,59.78
2023-02-02T00:32:18.632Z,60.25
2023-02-02T00:34:52.976Z,60.17
2023-02-02T00:37:25.857Z,60.13
2023-02-02T00:39:58.774Z,60.07
2023-02-02T00:42:31.728Z,59.80
2023-02-02T00:45:19.153Z,60.36
2023-02-02T00:47:52.220Z,59.91
2023-02-02T00:50:26.580Z,59.74
2023-02-02T00:53:00.091Z,60.17
2023-02-02T00:55:33.232Z,60.07
2023-02-02T00:58:06.069Z,60.28
2023-02-02T01:00:39.059Z,60.30
2023-02-02T01:03:13.390Z,59.92
2023-02-02T01:05:50.186Z,59.86
2023-02-02T01:08:23.036Z,60.34
2023-02-02T01:10:55.906Z,60.09
2023-02-02T01:13:28.765Z,60.62
2023-02-02T01:16:03.143Z,60.36
2023-02-02T01:18:36.052Z,60.49
2023-02-02T01:21:12.204Z,59.97
2023-02-02T01:23:45.322Z,60.30
2023-02-02T01:26:19.194Z,60.16
2023-02-02T01:28:52.149Z,60.75
2023-02-02T01:31:25.451Z,60.91
2023-02-02T01:33:58.307Z,60.61
2023-02-02T01:36:32.568Z,61.05
2023-02-02T01:39:05.542Z,60.96
2023-02-02T01:41:38.658Z,60.87
2023-02-02T01:44:48.827Z,60.67
2023-02-02T01:47:24.723Z,61.28
2023-02-02T01:49:57.888Z,60.98
2023-02-02T01:52:35.472Z,61.17
2023-02-02T01:55:11.368Z,60.91
2023-02-02T01:57:48.321Z,60.98
2023-02-02T02:00:25.467Z,61.04
2023-02-02T02:03:03.336Z,61.24
2023-02-02T02:05:39.429Z,61.33
2023-02-02T02:08:19.170Z,60.84
2023-02-02T02:10:52.239Z,61.37
2023-02-02T02:13:47.831Z,61.21
2023-02-02T02:16:29.633Z,61.07
2023-02-02T02:19:16.092Z,61.62
2023-02-02T02:22:15.789Z,61.65
2023-02-02T02:25:40.869Z,61.68
2023-02-02T02:28:37.906Z,61.88
2023-02-02T02:32:00.543Z,61.53
2023-02-02T02:34:44.588Z,62.95
2023-02-02T02:37:23.936Z,62.31
2023-02-02T02:40:03.619Z,63.34
2023-02-02T02:42:41.479Z,62.75
2023-02-02T02:45:15.266Z,62.77
2023-02-02T02:47:51.198Z,63.29
2023-02-02T02:50:24.216Z,63.63
2023-02-02T02:53:06.315Z,63.33
2023-02-02T02:55:48.658Z,63.99
2023-02-02T02:58:30.393Z,63.97
2023-02-02T03:01:09.120Z,64.23
2023-02-02T03:03:59.665Z,64.04
2023-02-02T03:06:42.229Z,64.58
2023-02-02T03:09:21.068Z,64.64
2023-02-02T03:11:56.732Z,64.60
2023-02-02T03:14:29.631Z,64.33
2023-02-02T03:17:02.830Z,64.70
2023-02-02T03:19:37.127Z,65.21
2023-02-02T03:22:10.015Z,65.14
2023-02-02T03:24:42.946Z,65.13
2023-02-02T03:27:15.841Z,65.15
2023-02-02T03:29:48.727Z,65.12
2023-02-02T03:32:21.813Z,65.39
2023-02-02T03:34:56.102Z,65.08
2023-02-02T03:37:28.936Z,65.34
2023-02-02T03:40:02.157Z,65.82
2023-02-02T03:42:35.259Z,65.92
2023-02-02T03:45:09.057Z,65.97
2023-02-02T03:47:41.926Z,65.81
2023-02-02T03:50:16.587Z,65.71
2023-02-02T03:52:49.516Z,65.16
2023-02-02T03:55:22.747Z,65.81
2023-02-02T03:57:55.981Z,65.34
2023-02-02T04:00:28.858Z,65.05
2023-02-02T04:03:01.865Z,64.96
2023-02-02T04:05:36.321Z,65.64
2023-02-02T04:08:09.224Z,65.39
2023-02-02T04:10:43.428Z,65.07
2023-02-02T04:13:16.359Z,65.53
2023-02-02T04:15:49.304Z,65.29
2023-02-02T04:18:22.265Z,65.19
2023-02-02T04:21:00.545Z,65.07
2023-02-02T04:23:33.870Z,65.73
2023-02-02T04:26:06.882Z,65.83
2023-02-02T04:28:39.783Z,65.92
2023-02-02T04:31:12.818Z,65.54
2023-02-02T04:33:45.944Z,66.16
2023-02-02T04:36:20.185Z,65.95
2023-02-02T04:38:54.362Z,66.21
2023-02-02T04:41:27.242Z,65.72
2023-02-02T04:44:00.136Z,65.66
2023-02-02T04:46:34.008Z,65.70
2023-02-02T04:49:07.450Z,65.49
2023-02-02T04:51:42.810Z,65.67
2023-02-02T04:54:15.647Z,65.40
2023-02-02T04:56:48.560Z,65.68
2023-02-02T04:59:21.436Z,65.92
2023-02-02T05:01:54.436Z,65.61
2023-02-02T05:04:27.828Z,65.68
2023-02-02T05:07:02.175Z,65.51
2023-02-02T05:09:35.046Z,65.32
2023-02-02T05:12:07.991Z,64.70
2023-02-02T05:14:40.831Z,64.92
2023-02-02T05:17:13.729Z,65.49
2023-02-02T05:19:46.673Z,64.82
2023-02-02T05:22:21.098Z,64.64
2023-02-02T05:24:53.952Z,64.57
2023-02-02T05:27:26.902Z,64.82
2023-02-02T05:30:00.334Z,65.43
2023-02-02T05:32:33.189Z,65.33
2023-02-02T05:35:07.218Z,65.25
2023-02-02T05:37:43.455Z,64.42
2023-02-02T05:40:16.534Z,65.22
2023-02-02T05:42:50.046Z,64.58
2023-02-02T05:45:23.685Z,65.39
2023-02-02T05:47:56.814Z,64.82
2023-02-02T05:50:30.228Z,64.72
2023-02-02T05:53:05.086Z,64.77
2023-02-02T05:55:37.988Z,64.69
2023-02-02T05:58:10.915Z,64.88
2023-02-02T06:00:43.781Z,64.58
2023-02-02T06:03:16.897Z,64.56
2023-02-02T06:05:49.978Z,64.51
2023-02-02T06:08:24.331Z,64.80
2023-02-02T06:10:57.243Z,64.50
2023-02-02T06:13:30.409Z,64.01
2023-02-02T06:16:03.480Z,64.54
2023-02-02T06:18:37.049Z,64.20
2023-02-02T06:21:09.985Z,64.67
2023-02-02T06:23:45.948Z,64.92
2023-02-02T06:26:19.920Z,64.13
2023-02-02T06:28:54.688Z,64.56
2023-02-02T06:31:27.665Z,64.74
2023-02-02T06:34:01.559Z,63.75
2023-02-02T06:36:34.458Z,64.65
2023-02-02T06:39:09.780Z,64.55
2023-02-02T06:41:44.813Z,64.63
2023-02-02T06:44:19.362Z,64.08
2023-02-02T06:46:52.369Z,64.35
2023-02-02T06:49:25.411Z,64.74
2023-02-02T06:51:58.369Z,64.29
2023-02-02T06:54:32.618Z,64.54
2023-02-02T06:57:05.567Z,64.47
2023-02-02T06:59:38.423Z,63.92
2023-02-02T07:02:13.228Z,63.94
2023-02-02T07:04:46.208Z,64.38
2023-02-02T07:07:19.086Z,64.48
2023-02-02T07:09:58.034Z,63.84
2023-02-02T07:12:31.375Z,64.23
2023-02-02T07:15:05.062Z,64.47
2023-02-02T07:17:38.014Z,64.17
2023-02-02T07:20:11.949Z,64.01
2023-02-02T07:22:44.795Z,63.69
2023-02-02T07:25:19.277Z,63.82
2023-02-02T07:27:54.068Z,64.25
2023-02-02T07:30:29.951Z,63.75
2023-02-02T07:33:03.010Z,64.27
2023-02-02T07:35:36.362Z,64.36
2023-02-02T07:38:09.220Z,64.40
2023-02-02T07:40:43.868Z,63.73
2023-02-02T07:43:16.758Z,64.22
2023-02-02T07:45:49.675Z,64.32
2023-02-02T07:48:22.647Z,64.09
2023-02-02T07:50:55.783Z,64.36
2023-02-02T07:53:28.799Z,63.56
2023-02-02T07:56:24.015Z,63.38
2023-02-02T07:58:58.071Z,63.90
2023-02-02T08:01:31.243Z,63.82
2023-02-02T08:04:04.456Z,63.29
2023-02-02T08:06:39.759Z,63.84
2023-02-02T08:09:12.847Z,63.96
2023-02-02T08:11:47.154Z,63.36
2023-02-02T08:14:20.000Z,63.46
2023-02-02T08:16:52.935Z,63.73
2023-02-02T08:19:25.841Z,63.63
2023-02-02T08:21:58.752Z,63.53
2023-02-02T08:24:31.757Z,63.64
2023-02-02T08:27:06.040Z,63.49
2023-02-02T08:29:40.662Z,63.11
2023-02-02T08:32:13.597Z,63.32
2023-02-02T08:34:46.643Z,63.29
2023-02-02T08:37:19.629Z,63.20
2023-02-02T08:39:52.603Z,63.12
2023-02-02T08:42:27.062Z,62.84
2023-02-02T08:46:02.972Z,62.99
2023-02-02T08:48:09.275Z,63.18
2023-02-02T08:50:44.104Z,62.74
2023-02-02T08:53:16.998Z,62.58
2023-02-02T08:55:50.354Z,62.67
2023-02-02T08:58:24.628Z,62.37
2023-02-02T09:01:05.759Z,62.00
2023-02-02T09:03:40.333Z,62.42
2023-02-02T09:06:16.189Z,62.46
2023-02-02T09:08:49.382Z,62.03
2023-02-02T09:11:23.182Z,62.04
2023-02-02T09:14:00.504Z,61.75
2023-02-02T09:16:34.996Z,62.31
2023-02-02T09:19:08.324Z,62.25
2023-02-02T09:21:41.302Z,62.15
2023-02-02T09:24:15.186Z,62.43
2023-02-02T09:26:48.249Z,62.57
2023-02-02T09:29:22.833Z,62.10
2023-02-02T09:31:55.783Z,62.33
2023-02-02T09:34:28.847Z,62.44
2023-02-02T09:37:01.803Z,62.35
2023-02-02T09:39:34.636Z,62.13
2023-02-02T09:42:35.428Z,61.68
2023-02-02T09:45:18.666Z,61.79
2023-02-02T09:47:55.640Z,62.04
2023-02-02T09:50:46.980Z,61.55
2023-02-02T09:53:26.828Z,61.58
2023-02-02T09:56:05.159Z,61.02
2023-02-02T09:58:46.618Z,61.37
2023-02-02T10:01:24.196Z,61.48
2023-02-02T10:04:06.781Z,60.90
2023-02-02T10:06:42.612Z,61.14
2023-02-02T10:09:30.553Z,60.25
2023-02-02T10:12:13.731Z,60.89
2023-02-02T10:14:54.193Z,61.12
2023-02-02T10:17:39.651Z,60.93
2023-02-02T10:20:24.347Z,60.64
2023-02-02T10:23:01.096Z,60.89
2023-02-02T10:25:36.458Z,60.89
2023-02-02T10:28:19.459Z,61.12
2023-02-02T10:31:01.990Z,61.01
2023-02-02T10:33:39.900Z,61.39
2023-02-02T10:36:27.655Z,61.01
2023-02-02T10:39:10.978Z,61.20
2023-02-02T10:41:53.833Z,61.61
2023-02-02T10:44:35.057Z,61.04
2023-02-02T10:47:13.332Z,61.74
2023-02-02T10:49:50.231Z,61.41
2023-02-02T10:52:31.064Z,61.33
2023-02-02T10:55:08.661Z,60.35
2023-02-02T10:57:52.196Z,59.78
2023-02-02T11:00:30.265Z,60.75
2023-02-02T11:03:04.886Z,60.66
2023-02-02T11:05:57.084Z,60.87
2023-02-02T11:08:34.302Z,60.11
2023-02-02T11:11:14.121Z,60.04
2023-02-02T11:13:52.691Z,60.25
2023-02-02T11:16:41.295Z,60.61
2023-02-02T11:19:29.734Z,60.24
2023-02-02T11:22:05.816Z,60.23
2023-02-02T11:24:46.385Z,59.62
2023-02-02T11:27:22.312Z,60.48
2023-02-02T11:29:57.356Z,60.04
2023-02-02T11:32:32.935Z,59.77
2023-02-02T11:35:18.504Z,60.11
2023-02-02T11:38:11.227Z,59.46
2023-02-02T11:40:45.883Z,59.84
2023-02-02T11:43:21.142Z,59.61
2023-02-02T11:45:57.639Z,59.29
2023-02-02T11:48:34.480Z,58.81
2023-02-02T11:51:09.135Z,59.24
2023-02-02T11:53:47.829Z,58.90
2023-02-02T11:56:24.120Z,59.30
2023-02-02T11:58:59.658Z,59.08
2023-02-02T12:01:34.496Z,58.88
2023-02-02T12:04:26.165Z,57.90
2023-02-02T12:06:59.557Z,58.99
2023-02-02T12:09:33.842Z,58.81
2023-02-02T12:12:11.560Z,58.54
2023-02-02T12:14:55.947Z,58.28
2023-02-02T12:17:39.048Z,58.69
2023-02-02T12:20:37.068Z,58.46
2023-02-02T12:23:29.894Z,58.54
2023-02-02T12:26:18.004Z,58.25
2023-02-02T12:29:04.917Z,58.59
2023-02-02T12:31:47.126Z,58.36
2023-02-02T12:34:33.923Z,59.02
2023-02-02T12:37:19.942Z,59.14
2023-02-02T12:40:10.393Z,58.20
2023-02-02T12:43:14.406Z,59.25
2023-02-02T12:45:59.004Z,59.34
2023-02-02T12:48:48.218Z,59.09
2023-02-02T12:51:35.828Z,58.90
2023-02-02T12:54:32.914Z,59.06
2023-02-02T12:57:17.369Z,58.87
2023-02-02T13:00:09.795Z,59.09
2023-02-02T13:02:55.944Z,59.58
2023-02-02T13:05:46.201Z,59.37
2023-02-02T13:08:24.461Z,59.60
2023-02-02T13:11:04.570Z,59.48
2023-02-02T13:13:40.092Z,59.44
2023-02-02T13:16:14.891Z,59.29
2023-02-02T13:18:55.997Z,58.86
2023-02-02T13:21:31.526Z,58.99
2023-02-02T13:24:09.269Z,58.95
2023-02-02T13:26:46.878Z,59.18
2023-02-02T13:29:27.963Z,59.06
2023-02-02T13:32:05.743Z,58.58
2023-02-02T13:34:44.995Z,59.22
2023-02-02T13:37:23.129Z,59.17
2023-02-02T13:39:59.907Z,58.68
2023-02-02T13:42:44.485Z,58.43
2023-02-02T13:45:36.746Z,58.72
2023-02-02T13:48:23.929Z,58.45
2023-02-02T13:51:18.611Z,57.51
2023-02-02T13:54:15.744Z,58.83
2023-02-02T13:56:58.384Z,58.11
2023-02-02T13:59:54.423Z,58.48
2023-02-02T14:02:33.599Z,58.56
2023-02-02T14:05:08.116Z,57.76
2023-02-02T14:07:45.192Z,57.35
2023-02-02T14:10:25.433Z,57.32
2023-02-02T14:13:29.427Z,56.91
2023-02-02T14:16:05.502Z,57.42
2023-02-02T14:18:57.766Z,57.53
2023-02-02T14:21:59.457Z,57.40
2023-02-02T14:24:44.797Z,58.13
2023-02-02T14:27:57.873Z,57.75
2023-02-02T14:30:36.024Z,57.78
2023-02-02T14:33:47.510Z,58.10
2023-02-02T14:36:20.818Z,57.87
2023-02-02T14:39:05.547Z,56.75
2023-02-02T14:42:38.278Z,56.52
2023-02-02T14:45:27.187Z,56.46
2023-02-02T14:48:02.940Z,57.32
2023-02-02T14:50:45.857Z,56.53
2023-02-02T14:53:26.743Z,56.92
2023-02-02T14:56:04.115Z,56.47
2023-02-02T14:59:00.294Z,56.54
2023-02-02T15:01:46.406Z,56.48
2023-02-02T15:04:27.562Z,56.23
2023-02-02T15:07:33.999Z,56.58
2023-02-02T15:10:10.283Z,57.28
2023-02-02T15:12:46.443Z,57.23
2023-02-02T15:15:24.139Z,57.58
2023-02-02T15:18:12.712Z,57.29
2023-02-02T15:20:50.152Z,57.14
2023-02-02T15:23:30.544Z,57.24
2023-02-02T15:26:08.154Z,57.43
2023-02-02T15:28:46.640Z,57.35
2023-02-02T15:31:26.531Z,57.98
2023-02-02T15:34:04.859Z,57.85
2023-02-02T15:36:42.577Z,57.86
2023-02-02T15:39:28.407Z,57.49
2023-02-02T15:42:23.527Z,57.93
2023-02-02T15:44:56.394Z,57.87
2023-02-02T15:47:32.907Z,57.28
2023-02-02T15:50:19.052Z,57.55
2023-02-02T15:52:53.749Z,58.23
2023-02-02T15:55:33.011Z,57.58
2023-02-02T15:58:28.879Z,57.98
2023-02-02T16:01:07.317Z,57.67
2023-02-02T16:03:47.733Z,57.48
2023-02-02T16:06:22.377Z,58.08
2023-02-02T16:08:55.509Z,57.97
2023-02-02T16:11:28.466Z,58.04
2023-02-02T16:14:04.293Z,57.83
2023-02-02T16:16:39.555Z,57.78
2023-02-02T16:19:17.055Z,58.04
2023-02-02T16:21:55.423Z,58.00
2023-02-02T16:24:31.660Z,58.04
2023-02-02T16:27:07.722Z,58.21
2023-02-02T16:29:41.721Z,58.13
2023-02-02T16:32:28.782Z,58.23
2023-02-02T16:35:04.671Z,58.22
2023-02-02T16:37:38.851Z,58.69
2023-02-02T16:40:22.790Z,58.21
2023-02-02T16:43:06.116Z,58.17
2023-02-02T16:45:47.615Z,58.75
2023-02-02T16:48:30.943Z,58.00
2023-02-02T16:51:08.504Z,57.99
2023-02-02T16:53:44.927Z,58.46
2023-02-02T16:56:27.408Z,58.29
2023-02-02T16:59:03.128Z,58.72
2023-02-02T17:01:40.476Z,58.40
2023-02-02T17:04:20.892Z,58.24
2023-02-02T17:06:54.312Z,58.63
2023-02-02T17:09:34.777Z,58.75
2023-02-02T17:12:36.789Z,58.94
2023-02-02T17:15:35.300Z,58.25
2023-02-02T17:18:10.447Z,58.56
2023-02-02T17:20:43.437Z,58.87
2023-02-02T17:23:19.104Z,58.70
2023-02-02T17:25:53.922Z,58.83
2023-02-02T17:28:27.831Z,58.66
2023-02-02T17:31:03.140Z,58.65
2023-02-02T17:33:36.865Z,58.50
2023-02-02T17:36:11.860Z,58.53
2023-02-02T17:38:44.801Z,58.45
2023-02-02T17:41:18.982Z,58.69
2023-02-02T17:43:51.833Z,58.91
2023-02-02T17:46:24.726Z,58.37
2023-02-02T17:48:57.823Z,58.64
2023-02-02T17:51:31.401Z,58.44
2023-02-02T17:54:04.293Z,58.65
2023-02-02T17:56:38.539Z,58.65
2023-02-02T17:59:12.302Z,58.58
2023-02-02T18:01:45.589Z,58.39
2023-02-02T18:04:18.578Z,58.52
2023-02-02T18:06:51.673Z,58.61
2023-02-02T18:09:24.956Z,58.35
2023-02-02T18:11:59.940Z,58.55
2023-02-02T18:14:32.784Z,58.30
2023-02-02T18:17:05.630Z,58.36
2023-02-02T18:19:39.431Z,58.79
2023-02-02T18:22:13.448Z,58.59
2023-02-02T18:24:46.357Z,58.29
2023-02-02T18:27:20.804Z,58.44
2023-02-02T18:29:53.670Z,58.29
2023-02-02T18:32:26.533Z,58.54
2023-02-02T18:34:59.357Z,58.47
2023-02-02T18:37:32.205Z,58.84
2023-02-02T18:40:07.775Z,58.52
2023-02-02T18:42:42.085Z,58.25
2023-02-02T18:45:15.304Z,58.49
2023-02-02T18:47:48.102Z,58.61
2023-02-02T18:50:22.058Z,58.29
2023-02-02T18:52:56.707Z,58.45
2023-02-02T18:55:29.931Z,58.52
2023-02-02T18:58:04.200Z,57.98
2023-02-02T19:00:37.123Z,58.61
2023-02-02T19:03:10.139Z,58.07
2023-02-02T19:06:00.551Z,58.31
2023-02-02T19:08:33.964Z,58.37
2023-02-02T19:11:14.091Z,58.39
2023-02-02T19:13:48.955Z,58.33
2023-02-02T19:16:25.778Z,58.35
2023-02-02T19:18:59.488Z,58.32
2023-02-02T19:21:32.692Z,58.41
2023-02-02T19:24:11.514Z,58.08
2023-02-02T19:26:47.602Z,58.59
2023-02-02T19:29:23.944Z,58.40
2023-02-02T19:32:02.840Z,58.63
2023-02-02T19:34:35.742Z,58.39
2023-02-02T19:37:24.003Z,58.21
2023-02-02T19:40:03.245Z,58.41
2023-02-02T19:42:36.690Z,58.59
2023-02-02T19:45:21.724Z,58.09
2023-02-02T19:47:57.108Z,58.80
2023-02-02T19:50:38.076Z,58.38
2023-02-02T19:53:15.332Z,58.66
2023-02-02T19:55:48.568Z,58.59
2023-02-02T19:58:23.305Z,58.55
2023-02-02T20:00:58.448Z,58.46
2023-02-02T20:03:43.204Z,58.44
2023-02-02T20:06:23.597Z,58.64
2023-02-02T20:08:56.472Z,58.33
2023-02-02T20:11:35.967Z,58.45
2023-02-02T20:14:26.616Z,58.15
2023-02-02T20:17:03.342Z,58.37
2023-02-02T20:19:41.513Z,58.36
2023-02-02T20:22:24.592Z,58.37
2023-02-02T20:24:58.796Z,59.06
2023-02-02T20:27:34.985Z,58.68
2023-02-02T20:30:22.843Z,58.49
2023-02-02T20:32:59.153Z,58.75
2023-02-02T20:35:38.207Z,58.51
2023-02-02T20:38:21.665Z,58.54
2023-02-02T20:40:54.813Z,58.78
2023-02-02T20:43:27.702Z,58.88
2023-02-02T20:46:00.627Z,59.02
2023-02-02T20:48:34.920Z,58.86
2023-02-02T20:51:08.770Z,59.00
2023-02-02T20:53:41.564Z,58.95
2023-02-02T20:56:14.363Z,58.81
2023-02-02T20:58:47.157Z,59.00
2023-02-02T21:01:23.367Z,59.19
2023-02-02T21:03:57.802Z,59.36
2023-02-02T21:06:30.912Z,59.17
2023-02-02T21:09:03.902Z,59.46
2023-02-02T21:11:36.866Z,59.05
2023-02-02T21:14:10.155Z,59.28
2023-02-02T21:16:43.383Z,59.46
2023-02-02T21:19:17.704Z,58.99
2023-02-02T21:21:50.534Z,59.30
2023-02-02T21:24:23.924Z,59.16
2023-02-02T21:26:57.646Z,59.23
2023-02-02T21:29:31.475Z,59.19
2023-02-02T21:32:04.731Z,59.16
2023-02-02T21:34:39.103Z,59.10
2023-02-02T21:37:14.725Z,59.42
2023-02-02T21:39:51.050Z,58.96
2023-02-02T21:42:26.840Z,59.48
2023-02-02T21:45:21.675Z,59.38
2023-02-02T21:47:57.055Z,59.33
2023-02-02T21:50:35.074Z,59.49
2023-02-02T21:53:19.942Z,59.16
2023-02-02T21:55:54.962Z,59.31
2023-02-02T21:58:33.223Z,59.33
2023-02-02T22:01:20.881Z,59.40
2023-02-02T22:03:53.714Z,59.59
2023-02-02T22:06:30.976Z,59.48
2023-02-02T22:09:15.557Z,59.42
2023-02-02T22:11:50.975Z,59.41
2023-02-02T22:14:30.393Z,59.73
2023-02-02T22:17:03.332Z,59.71
2023-02-02T22:19:39.781Z,60.04
2023-02-02T22:22:20.454Z,60.10
2023-02-02T22:25:00.125Z,59.94
2023-02-02T22:27:42.539Z,59.36
2023-02-02T22:30:24.326Z,59.63
2023-02-02T22:32:57.401Z,59.56
2023-02-02T22:35:30.749Z,59.67
2023-02-02T22:38:06.201Z,59.70
2023-02-02T22:40:39.068Z,59.63
2023-02-02T22:43:13.427Z,59.75
2023-02-02T22:45:46.626Z,59.95
2023-02-02T22:48:19.476Z,59.80
2023-02-02T22:50:52.845Z,59.89
2023-02-02T22:53:27.192Z,59.92
2023-02-02T22:56:00.023Z,60.08
2023-02-02T22:58:32.947Z,60.07
2023-02-02T23:01:06.047Z,60.34
2023-02-02T23:03:38.886Z,60.31
2023-02-02T23:06:11.912Z,60.26
2023-02-02T23:08:46.670Z,60.34
2023-02-02T23:11:19.510Z,60.65
2023-02-02T23:13:52.290Z,60.41
2023-02-02T23:16:25.172Z,60.90
2023-02-02T23:18:58.013Z,60.68
2023-02-02T23:21:30.799Z,60.91
2023-02-02T23:24:05.615Z,61.00
2023-02-02T23:26:38.426Z,61.17
2023-02-02T23:29:11.328Z,61.14
2023-02-02T23:31:44.219Z,60.99
2023-02-02T23:34:17.060Z,61.28
2023-02-02T23:36:50.126Z,61.28
2023-02-02T23:39:24.527Z,61.12
2023-02-02T23:41:57.383Z,61.44
2023-02-02T23:44:30.229Z,61.50
2023-02-02T23:47:03.952Z,61.37
2023-02-02T23:49:37.356Z,61.27
2023-02-02T23:52:10.268Z,61.29
2023-02-02T23:54:45.030Z,61.42
2023-02-02T23:57:17.970Z,61.48
2023-02-02T23:59:51.143Z,61.08
